createdAt,value
2024-01-16T00:02:08.977Z,79.96
2024-01-16T00:04:38.189Z,79.95
2024-01-16T00:07:05.986Z,80.03
2024-01-16T00:09:36.413Z,80.00
2024-01-16T00:12:04.717Z,80.17
2024-01-16T00:14:37.084Z,80.24
2024-01-16T00:17:05.048Z,80.18
2024-01-16T00:19:32.486Z,80.21
2024-01-16T00:22:01.223Z,80.08
2024-01-16T00:24:28.852Z,80.05
2024-01-16T00:26:56.306Z,79.90
2024-01-16T00:29:24.407Z,79.94
2024-01-16T00:31:51.886Z,79.94
2024-01-16T00:34:19.486Z,80.10
2024-01-16T00:36:47.230Z,80.15
2024-01-16T00:39:14.867Z,80.03
2024-01-16T00:41:42.163Z,80.13
2024-01-16T00:44:09.382Z,80.36
2024-01-16T00:46:36.748Z,80.47
2024-01-16T00:49:03.926Z,80.35
2024-01-16T00:51:31.216Z,79.97
2024-01-16T00:53:58.181Z,79.80
2024-01-16T00:56:28.346Z,79.67
2024-01-16T00:58:55.842Z,79.94
2024-01-16T01:01:23.807Z,80.03
2024-01-16T01:03:52.101Z,80.10
2024-01-16T01:06:19.920Z,80.23
2024-01-16T01:08:46.976Z,80.51
2024-01-16T01:11:14.174Z,80.73
2024-01-16T01:13:41.294Z,80.93
2024-01-16T01:16:09.340Z,81.16
2024-01-16T01:18:36.702Z,81.18
2024-01-16T01:21:03.928Z,81.08
2024-01-16T01:23:31.740Z,81.22
2024-01-16T01:25:58.997Z,81.20
2024-01-16T01:28:26.263Z,81.12
2024-01-16T01:30:53.351Z,81.11
2024-01-16T01:33:20.707Z,80.93
2024-01-16T01:35:48.262Z,80.72
2024-01-16T01:38:15.356Z,80.53
2024-01-16T01:40:44.209Z,80.77
2024-01-16T01:43:20.219Z,81.03
2024-01-16T01:46:18.995Z,81.52
2024-01-16T01:48:50.973Z,81.64
2024-01-16T01:51:19.603Z,81.05
2024-01-16T01:53:50.738Z,80.92
2024-01-16T01:56:21.853Z,80.79
2024-01-16T01:58:54.258Z,80.74
2024-01-16T02:01:22.768Z,81.09
2024-01-16T02:03:52.040Z,81.48
2024-01-16T02:06:19.337Z,81.49
2024-01-16T02:08:46.719Z,81.53
2024-01-16T02:11:13.932Z,81.43
2024-01-16T02:13:42.450Z,81.31
2024-01-16T02:16:21.808Z,81.48
2024-01-16T02:18:49.953Z,81.59
2024-01-16T02:21:21.530Z,81.76
2024-01-16T02:23:49.266Z,82.14
2024-01-16T02:26:16.966Z,82.17
2024-01-16T02:28:44.174Z,82.09
2024-01-16T02:31:11.095Z,82.07
2024-01-16T02:33:38.813Z,82.06
2024-01-16T02:36:06.276Z,81.61
2024-01-16T02:38:33.588Z,81.13
2024-01-16T02:41:01.101Z,80.85
2024-01-16T02:43:28.175Z,80.94
2024-01-16T02:45:55.156Z,81.04
2024-01-16T02:48:22.067Z,81.18
2024-01-16T02:50:49.333Z,81.14
2024-01-16T02:53:16.579Z,81.65
2024-01-16T02:55:43.715Z,81.83
2024-01-16T02:58:10.628Z,82.04
2024-01-16T03:00:38.248Z,82.41
2024-01-16T03:03:05.718Z,82.38
2024-01-16T03:05:32.848Z,81.71
2024-01-16T03:07:59.933Z,81.26
2024-01-16T03:10:27.066Z,81.03
2024-01-16T03:12:54.204Z,80.81
2024-01-16T03:15:21.390Z,80.61
2024-01-16T03:17:49.082Z,80.30
2024-01-16T03:20:17.038Z,80.13
2024-01-16T03:22:44.899Z,80.13
2024-01-16T03:25:12.904Z,80.51
2024-01-16T03:27:39.964Z,80.04
2024-01-16T03:30:09.118Z,80.09
2024-01-16T03:32:37.336Z,80.83
2024-01-16T03:35:08.128Z,81.36
2024-01-16T03:37:35.349Z,81.55
2024-01-16T03:40:02.690Z,81.57
2024-01-16T03:42:29.621Z,81.52
2024-01-16T03:44:57.436Z,81.49
2024-01-16T03:47:24.734Z,81.30
2024-01-16T03:49:52.007Z,80.55
2024-01-16T03:52:19.104Z,79.97
2024-01-16T03:54:46.242Z,79.19
2024-01-16T03:57:13.347Z,79.52
2024-01-16T03:59:40.548Z,79.41
2024-01-16T04:02:07.841Z,79.23
2024-01-16T04:04:35.428Z,79.00
2024-01-16T04:07:02.600Z,78.57
2024-01-16T04:09:30.301Z,78.59
2024-01-16T04:11:57.500Z,78.67
2024-01-16T04:14:24.713Z,78.76
2024-01-16T04:16:52.318Z,78.56
2024-01-16T04:19:19.540Z,77.98
2024-01-16T04:21:47.054Z,78.18
2024-01-16T04:24:14.265Z,78.65
2024-01-16T04:26:41.422Z,78.98
2024-01-16T04:29:09.290Z,78.66
2024-01-16T04:31:42.721Z,78.70
2024-01-16T04:34:10.988Z,78.43
2024-01-16T04:36:38.697Z,78.56
2024-01-16T04:39:06.166Z,78.48
2024-01-16T04:41:33.455Z,79.08
2024-01-16T04:44:01.117Z,79.69
2024-01-16T04:46:28.276Z,80.33
2024-01-16T04:48:56.311Z,80.52
2024-01-16T04:51:23.471Z,80.52
2024-01-16T04:53:50.835Z,79.62
2024-01-16T04:56:18.112Z,78.49
2024-01-16T04:58:45.503Z,78.04
2024-01-16T05:01:13.870Z,78.34
2024-01-16T05:03:41.198Z,79.06
2024-01-16T05:06:15.851Z,79.62
2024-01-16T05:08:43.884Z,79.51
2024-01-16T05:11:11.208Z,79.58
2024-01-16T05:13:38.409Z,79.17
2024-01-16T05:16:06.954Z,79.52
2024-01-16T05:18:34.642Z,79.65
2024-01-16T05:21:03.194Z,79.85
2024-01-16T05:23:30.719Z,79.92
2024-01-16T05:25:58.561Z,79.77
2024-01-16T05:28:25.765Z,79.91
2024-01-16T05:30:53.152Z,79.88
2024-01-16T05:33:20.568Z,79.81
2024-01-16T05:35:47.852Z,79.78
2024-01-16T05:38:15.082Z,79.39
2024-01-16T05:40:42.556Z,79.34
2024-01-16T05:43:09.990Z,78.92
2024-01-16T05:45:37.290Z,79.01
2024-01-16T05:48:04.771Z,79.09
2024-01-16T05:50:32.503Z,78.79
2024-01-16T05:52:59.661Z,78.77
2024-01-16T05:55:26.810Z,78.71
2024-01-16T05:57:54.276Z,78.63
2024-01-16T06:00:23.798Z,78.60
2024-01-16T06:02:50.978Z,78.19
2024-01-16T06:05:18.444Z,78.02
2024-01-16T06:07:46.262Z,78.13
2024-01-16T06:10:16.728Z,78.43
2024-01-16T06:12:43.993Z,78.45
2024-01-16T06:15:13.544Z,78.80
2024-01-16T06:17:40.905Z,78.94
2024-01-16T06:20:08.726Z,79.21
2024-01-16T06:22:35.835Z,79.33
2024-01-16T06:25:03.155Z,79.50
2024-01-16T06:27:30.338Z,79.61
2024-01-16T06:29:57.557Z,79.65
2024-01-16T06:32:25.036Z,79.72
2024-01-16T06:34:52.838Z,80.04
2024-01-16T06:37:20.484Z,80.12
2024-01-16T06:39:47.905Z,80.24
2024-01-16T06:42:14.919Z,80.03
2024-01-16T06:44:42.486Z,79.76
2024-01-16T06:47:09.761Z,79.29
2024-01-16T06:49:37.080Z,79.11
2024-01-16T06:52:04.398Z,78.75
2024-01-16T06:54:31.561Z,78.44
2024-01-16T06:56:58.763Z,78.08
2024-01-16T06:59:25.768Z,77.93
2024-01-16T07:01:52.882Z,77.48
2024-01-16T07:04:20.240Z,77.17
2024-01-16T07:06:48.120Z,76.96
2024-01-16T07:09:16.735Z,76.72
2024-01-16T07:11:44.040Z,76.85
2024-01-16T07:14:11.850Z,77.18
2024-01-16T07:16:39.280Z,77.51
2024-01-16T07:19:06.502Z,77.70
2024-01-16T07:21:34.427Z,77.83
2024-01-16T07:24:01.471Z,77.46
2024-01-16T07:26:30.480Z,77.09
2024-01-16T07:28:57.861Z,77.26
2024-01-16T07:31:26.395Z,77.00
2024-01-16T07:33:54.042Z,77.13
2024-01-16T07:36:21.426Z,77.04
2024-01-16T07:38:49.364Z,77.05
2024-01-16T07:41:17.007Z,76.76
2024-01-16T07:43:46.702Z,76.76
2024-01-16T07:46:15.841Z,76.72
2024-01-16T07:48:43.620Z,76.60
2024-01-16T07:51:11.156Z,76.15
2024-01-16T07:53:38.613Z,75.81
2024-01-16T07:56:05.848Z,76.10
2024-01-16T07:58:33.026Z,76.21
2024-01-16T08:01:00.097Z,76.21
2024-01-16T08:03:27.424Z,75.96
2024-01-16T08:05:55.154Z,75.62
2024-01-16T08:08:22.773Z,75.63
2024-01-16T08:10:49.923Z,75.52
2024-01-16T08:13:17.508Z,75.46
2024-01-16T08:15:45.551Z,75.63
2024-01-16T08:18:13.172Z,75.78
2024-01-16T08:20:40.382Z,75.81
2024-01-16T08:23:07.660Z,76.03
2024-01-16T08:25:35.064Z,76.02
2024-01-16T08:28:02.499Z,75.94
2024-01-16T08:30:29.764Z,75.89
2024-01-16T08:32:57.486Z,75.79
2024-01-16T08:35:25.011Z,75.84
2024-01-16T08:37:52.518Z,75.54
2024-01-16T08:40:19.919Z,75.38
2024-01-16T08:42:54.490Z,75.22
2024-01-16T08:45:23.999Z,75.09
2024-01-16T08:47:51.275Z,74.90
2024-01-16T08:50:18.768Z,74.92
2024-01-16T08:52:45.973Z,74.81
2024-01-16T08:55:13.215Z,74.71
2024-01-16T08:57:40.303Z,74.94
2024-01-16T09:00:09.623Z,75.12
2024-01-16T09:02:36.946Z,74.78
2024-01-16T09:05:05.943Z,74.93
2024-01-16T09:07:33.279Z,74.85
2024-01-16T09:10:00.397Z,74.67
2024-01-16T09:12:27.615Z,74.40
2024-01-16T09:14:54.562Z,73.91
2024-01-16T09:17:21.794Z,73.68
2024-01-16T09:19:48.961Z,73.18
2024-01-16T09:22:16.900Z,72.61
2024-01-16T09:24:44.319Z,72.57
2024-01-16T09:27:11.514Z,72.64
2024-01-16T09:29:38.700Z,72.64
2024-01-16T09:32:06.328Z,72.47
2024-01-16T09:34:33.770Z,72.05
2024-01-16T09:37:03.404Z,72.06
2024-01-16T09:39:35.789Z,72.34
2024-01-16T09:42:02.986Z,72.33
2024-01-16T09:44:30.404Z,71.99
2024-01-16T09:47:00.412Z,71.69
2024-01-16T09:49:30.673Z,71.29
2024-01-16T09:51:59.877Z,71.02
2024-01-16T09:54:27.657Z,71.26
2024-01-16T09:56:59.036Z,71.33
2024-01-16T09:59:29.214Z,71.29
2024-01-16T10:01:56.848Z,71.29
2024-01-16T10:04:24.415Z,71.24
2024-01-16T10:06:53.355Z,71.06
2024-01-16T10:09:20.576Z,70.73
2024-01-16T10:11:49.146Z,70.54
2024-01-16T10:14:18.467Z,69.97
2024-01-16T10:17:06.220Z,69.47
2024-01-16T10:19:43.266Z,68.66
2024-01-16T10:22:25.480Z,67.62
2024-01-16T10:25:17.175Z,66.76
2024-01-16T10:27:44.440Z,65.49
2024-01-16T10:30:12.373Z,63.92
2024-01-16T10:32:44.465Z,63.27
2024-01-16T10:35:14.382Z,62.65
2024-01-16T10:37:49.022Z,61.41
2024-01-16T10:40:23.572Z,58.74
2024-01-16T10:43:06.065Z,56.96
2024-01-16T10:45:34.350Z,55.55
2024-01-16T10:48:06.789Z,52.30
2024-01-16T10:50:36.376Z,46.71
2024-01-16T10:53:09.153Z,42.91
2024-01-16T10:55:49.460Z,40.40
2024-01-16T10:58:18.009Z,37.83
2024-01-16T11:00:48.973Z,35.76
2024-01-16T11:03:33.627Z,33.89
2024-01-16T11:06:02.735Z,32.85
2024-01-16T11:08:33.384Z,31.46
2024-01-16T11:11:01.981Z,30.69
2024-01-16T11:13:29.414Z,29.00
2024-01-16T11:15:58.759Z,28.61
2024-01-16T11:18:28.251Z,28.56
2024-01-16T11:21:05.985Z,28.49
2024-01-16T11:23:37.347Z,27.80
2024-01-16T11:26:26.939Z,26.79
2024-01-16T11:28:57.022Z,26.84
2024-01-16T11:31:31.456Z,26.11
2024-01-16T11:34:00.354Z,26.20
2024-01-16T11:36:54.735Z,25.98
2024-01-16T11:39:23.603Z,25.35
2024-01-16T11:41:56.000Z,24.54
2024-01-16T11:44:47.636Z,23.65
2024-01-16T11:47:19.463Z,22.71
2024-01-16T11:49:51.910Z,21.96
2024-01-16T11:52:44.264Z,21.54
2024-01-16T11:55:31.766Z,21.09
2024-01-16T11:58:20.672Z,20.78
2024-01-16T12:00:53.375Z,21.39
2024-01-16T12:03:32.002Z,21.43
2024-01-16T12:06:04.638Z,20.99
2024-01-16T12:08:33.037Z,19.88
2024-01-16T12:11:00.590Z,19.55
2024-01-16T12:13:27.537Z,19.13
2024-01-16T12:16:02.450Z,18.83
2024-01-16T12:18:38.515Z,18.46
2024-01-16T12:21:11.847Z,18.24
2024-01-16T12:23:43.977Z,18.14
2024-01-16T12:26:25.785Z,18.40
2024-01-16T12:28:56.294Z,18.08
2024-01-16T12:31:28.067Z,18.43
2024-01-16T12:34:08.391Z,18.45
2024-01-16T12:36:36.370Z,18.69
2024-01-16T12:39:05.033Z,18.98
2024-01-16T12:41:42.934Z,19.09
2024-01-16T12:44:16.443Z,18.82
2024-01-16T12:46:55.795Z,18.86
2024-01-16T12:49:24.858Z,19.16
2024-01-16T12:51:53.777Z,18.97
2024-01-16T12:54:24.545Z,19.30
2024-01-16T12:56:59.966Z,19.41
2024-01-16T12:59:32.037Z,19.78
2024-01-16T13:01:59.738Z,19.93
2024-01-16T13:04:28.343Z,20.15
2024-01-16T13:07:06.174Z,20.78
2024-01-16T13:09:33.976Z,20.93
2024-01-16T13:12:01.845Z,20.68
2024-01-16T13:14:31.134Z,20.38
2024-01-16T13:16:58.578Z,20.62
2024-01-16T13:19:26.581Z,21.00
2024-01-16T13:21:54.633Z,20.79
2024-01-16T13:24:24.299Z,20.90
2024-01-16T13:26:53.537Z,20.81
2024-01-16T13:29:21.708Z,20.85
2024-01-16T13:31:50.185Z,21.04
2024-01-16T13:34:19.866Z,21.21
2024-01-16T13:37:06.632Z,22.41
2024-01-16T13:39:39.425Z,24.36
2024-01-16T13:42:08.529Z,25.80
2024-01-16T13:44:36.090Z,26.42
2024-01-16T13:47:08.690Z,27.63
2024-01-16T13:49:40.994Z,29.13
2024-01-16T13:52:08.247Z,29.50
2024-01-16T13:54:39.290Z,29.62
2024-01-16T13:57:09.188Z,30.34
2024-01-16T13:59:38.167Z,31.28
2024-01-16T14:02:09.078Z,32.48
2024-01-16T14:04:36.373Z,33.63
2024-01-16T14:07:12.150Z,34.98
2024-01-16T14:09:45.211Z,35.97
2024-01-16T14:12:15.114Z,37.20
2024-01-16T14:14:44.042Z,38.26
2024-01-16T14:17:12.493Z,39.29
2024-01-16T14:19:40.538Z,40.04
2024-01-16T14:22:08.552Z,40.83
2024-01-16T14:24:36.051Z,41.66
2024-01-16T14:27:05.145Z,42.29
2024-01-16T14:29:35.165Z,42.96
2024-01-16T14:32:02.734Z,43.65
2024-01-16T14:34:30.506Z,44.20
2024-01-16T14:36:58.054Z,45.01
2024-01-16T14:39:26.537Z,45.66
2024-01-16T14:41:55.346Z,46.37
2024-01-16T14:44:22.976Z,46.90
2024-01-16T14:46:53.092Z,47.62
2024-01-16T14:49:24.692Z,48.22
2024-01-16T14:51:52.622Z,49.15
2024-01-16T14:54:20.232Z,49.94
2024-01-16T14:56:47.988Z,50.68
2024-01-16T14:59:16.511Z,51.44
2024-01-16T15:01:45.625Z,52.09
2024-01-16T15:04:13.551Z,52.69
2024-01-16T15:06:41.791Z,53.28
2024-01-16T15:09:13.096Z,54.03
2024-01-16T15:11:40.539Z,54.62
2024-01-16T15:14:08.799Z,55.07
2024-01-16T15:16:36.505Z,55.44
2024-01-16T15:19:04.165Z,55.70
2024-01-16T15:21:32.019Z,55.90
2024-01-16T15:23:59.620Z,56.06
2024-01-16T15:26:27.377Z,56.28
2024-01-16T15:28:54.729Z,56.62
2024-01-16T15:31:22.193Z,56.77
2024-01-16T15:33:50.437Z,56.89
2024-01-16T15:36:18.077Z,56.87
2024-01-16T15:38:46.496Z,57.10
2024-01-16T15:41:14.324Z,57.31
2024-01-16T15:43:41.905Z,57.57
2024-01-16T15:46:09.339Z,57.89
2024-01-16T15:48:39.062Z,57.87
2024-01-16T15:51:06.944Z,57.98
2024-01-16T15:53:35.657Z,58.30
2024-01-16T15:56:08.154Z,58.68
2024-01-16T15:58:35.647Z,59.00
2024-01-16T16:01:02.872Z,59.53
2024-01-16T16:03:30.417Z,59.55
2024-01-16T16:05:58.057Z,60.10
2024-01-16T16:08:25.999Z,60.14
2024-01-16T16:10:53.226Z,60.56
2024-01-16T16:13:20.173Z,61.07
2024-01-16T16:15:47.965Z,61.20
2024-01-16T16:18:15.405Z,61.66
2024-01-16T16:20:42.923Z,62.04
2024-01-16T16:23:11.162Z,61.73
2024-01-16T16:25:47.477Z,61.99
2024-01-16T16:28:15.401Z,61.85
2024-01-16T16:30:44.195Z,61.87
2024-01-16T16:33:11.828Z,62.02
2024-01-16T16:35:39.196Z,62.46
2024-01-16T16:38:06.977Z,62.64
2024-01-16T16:40:34.650Z,62.69
2024-01-16T16:43:03.372Z,62.67
2024-01-16T16:45:33.528Z,62.55
2024-01-16T16:48:01.183Z,62.61
2024-01-16T16:50:28.690Z,62.56
2024-01-16T16:52:56.308Z,62.41
2024-01-16T16:55:24.136Z,62.43
2024-01-16T16:57:51.947Z,62.41
2024-01-16T17:00:20.130Z,62.39
2024-01-16T17:02:50.886Z,62.48
2024-01-16T17:05:19.875Z,62.57
2024-01-16T17:07:50.276Z,62.70
2024-01-16T17:10:17.667Z,62.94
2024-01-16T17:12:50.800Z,63.19
2024-01-16T17:15:21.459Z,63.39
2024-01-16T17:17:49.149Z,63.54
2024-01-16T17:20:23.158Z,63.55
2024-01-16T17:22:52.151Z,63.67
2024-01-16T17:25:23.261Z,63.76
2024-01-16T17:27:51.174Z,64.05
2024-01-16T17:30:19.941Z,64.14
2024-01-16T17:32:48.344Z,63.95
2024-01-16T17:35:17.192Z,64.22
2024-01-16T17:37:46.224Z,64.20
2024-01-16T17:40:13.714Z,63.96
2024-01-16T17:42:50.997Z,64.09
2024-01-16T17:45:18.644Z,63.87
2024-01-16T17:47:46.345Z,63.89
2024-01-16T17:50:13.803Z,64.14
2024-01-16T17:52:41.216Z,64.22
2024-01-16T17:55:09.939Z,64.34
2024-01-16T17:57:37.234Z,64.54
2024-01-16T18:00:06.794Z,64.75
2024-01-16T18:02:35.917Z,65.05
2024-01-16T18:05:12.141Z,65.30
2024-01-16T18:07:42.535Z,65.45
2024-01-16T18:10:21.554Z,65.81
2024-01-16T18:12:50.471Z,66.04
2024-01-16T18:15:19.434Z,66.32
2024-01-16T18:17:51.244Z,66.49
2024-01-16T18:20:28.547Z,66.51
2024-01-16T18:22:59.895Z,66.65
2024-01-16T18:25:28.170Z,67.07
2024-01-16T18:27:57.892Z,67.49
2024-01-16T18:30:28.259Z,67.82
2024-01-16T18:32:57.569Z,67.90
2024-01-16T18:35:26.133Z,68.13
2024-01-16T18:37:56.092Z,68.28
2024-01-16T18:40:25.695Z,68.45
2024-01-16T18:42:54.875Z,68.56
2024-01-16T18:45:25.403Z,68.55
2024-01-16T18:47:54.354Z,68.65
2024-01-16T18:50:23.358Z,68.90
2024-01-16T18:52:53.816Z,68.85
2024-01-16T18:55:23.116Z,68.87
2024-01-16T18:57:53.471Z,68.78
2024-01-16T19:00:27.192Z,68.79
2024-01-16T19:02:55.857Z,68.74
2024-01-16T19:05:26.712Z,68.82
2024-01-16T19:07:55.018Z,68.64
2024-01-16T19:10:26.630Z,68.71
2024-01-16T19:12:54.249Z,68.87
2024-01-16T19:15:22.518Z,68.83
2024-01-16T19:18:01.849Z,69.02
2024-01-16T19:20:29.968Z,69.03
2024-01-16T19:22:57.974Z,69.39
2024-01-16T19:25:26.575Z,69.43
2024-01-16T19:27:56.327Z,69.57
2024-01-16T19:30:24.333Z,69.59
2024-01-16T19:32:52.322Z,70.04
2024-01-16T19:35:26.579Z,70.82
2024-01-16T19:37:57.322Z,71.26
2024-01-16T19:40:28.414Z,71.79
2024-01-16T19:43:07.247Z,72.03
2024-01-16T19:45:37.600Z,72.19
2024-01-16T19:48:28.734Z,72.79
2024-01-16T19:50:56.753Z,72.91
2024-01-16T19:53:47.574Z,73.38
2024-01-16T19:56:17.647Z,73.50
2024-01-16T19:58:51.533Z,73.75
2024-01-16T20:01:23.534Z,74.63
2024-01-16T20:03:52.272Z,74.89
2024-01-16T20:06:22.472Z,74.48
2024-01-16T20:08:58.147Z,74.19
2024-01-16T20:11:35.875Z,74.26
2024-01-16T20:14:08.353Z,74.12
2024-01-16T20:16:38.511Z,74.52
2024-01-16T20:19:08.928Z,74.34
2024-01-16T20:21:39.126Z,74.21
2024-01-16T20:24:08.687Z,74.23
2024-01-16T20:26:59.941Z,74.15
2024-01-16T20:29:30.826Z,74.26
2024-01-16T20:32:00.736Z,74.14
2024-01-16T20:34:32.371Z,74.21
2024-01-16T20:37:02.705Z,74.45
2024-01-16T20:39:32.087Z,74.60
2024-01-16T20:42:02.284Z,74.87
2024-01-16T20:44:34.171Z,75.05
2024-01-16T20:47:06.448Z,75.15
2024-01-16T20:49:35.591Z,75.67
2024-01-16T20:52:06.293Z,75.96
2024-01-16T20:54:34.244Z,76.11
2024-01-16T20:57:03.694Z,76.08
2024-01-16T20:59:35.092Z,76.28
2024-01-16T21:02:03.851Z,76.95
2024-01-16T21:04:32.807Z,77.34
2024-01-16T21:07:04.350Z,77.78
2024-01-16T21:09:33.611Z,78.18
2024-01-16T21:12:05.917Z,78.69
2024-01-16T21:14:35.436Z,79.03
2024-01-16T21:17:07.989Z,79.22
2024-01-16T21:19:38.278Z,79.27
2024-01-16T21:22:07.336Z,79.39
2024-01-16T21:24:37.387Z,79.19
2024-01-16T21:27:07.327Z,78.82
2024-01-16T21:29:34.920Z,78.82
2024-01-16T21:32:05.526Z,78.80
2024-01-16T21:34:34.985Z,79.13
2024-01-16T21:37:02.907Z,79.58
2024-01-16T21:39:33.595Z,79.70
2024-01-16T21:42:04.067Z,79.76
2024-01-16T21:44:34.327Z,79.96
2024-01-16T21:47:03.057Z,80.10
2024-01-16T21:49:32.243Z,80.10
2024-01-16T21:52:02.458Z,80.13
2024-01-16T21:54:33.011Z,80.15
2024-01-16T21:57:02.372Z,79.99
2024-01-16T21:59:31.824Z,80.00
2024-01-16T22:02:00.385Z,80.14
2024-01-16T22:04:28.812Z,80.39
2024-01-16T22:06:57.821Z,80.45
2024-01-16T22:09:28.826Z,80.68
2024-01-16T22:11:56.838Z,80.82
2024-01-16T22:14:25.487Z,80.79
2024-01-16T22:16:55.680Z,80.52
2024-01-16T22:19:23.278Z,80.20
2024-01-16T22:21:51.141Z,80.17
2024-01-16T22:24:19.066Z,80.28
2024-01-16T22:26:47.934Z,80.35
2024-01-16T22:29:16.368Z,80.36
2024-01-16T22:31:44.852Z,80.54
2024-01-16T22:34:12.630Z,80.12
2024-01-16T22:36:42.484Z,79.48
2024-01-16T22:39:15.958Z,79.24
2024-01-16T22:41:47.090Z,79.00
2024-01-16T22:44:14.975Z,79.04
2024-01-16T22:46:42.630Z,79.17
2024-01-16T22:49:11.220Z,79.21
2024-01-16T22:51:38.802Z,79.33
2024-01-16T22:54:06.420Z,79.75
2024-01-16T22:56:33.845Z,80.04
2024-01-16T22:59:04.018Z,80.02
2024-01-16T23:01:31.860Z,79.96
2024-01-16T23:03:59.868Z,79.66
2024-01-16T23:06:28.598Z,79.57
2024-01-16T23:08:56.804Z,79.71
2024-01-16T23:11:24.826Z,79.75
2024-01-16T23:13:52.718Z,80.11
2024-01-16T23:16:20.485Z,80.12
2024-01-16T23:18:48.533Z,79.75
2024-01-16T23:21:19.424Z,79.42
2024-01-16T23:23:48.468Z,79.68
2024-01-16T23:26:15.951Z,79.62
2024-01-16T23:28:43.909Z,79.80
2024-01-16T23:31:12.448Z,79.76
2024-01-16T23:33:41.304Z,79.69
2024-01-16T23:36:08.632Z,79.67
2024-01-16T23:38:38.505Z,79.32
2024-01-16T23:41:12.820Z,79.08
2024-01-16T23:43:42.972Z,78.91
2024-01-16T23:46:11.127Z,79.28
2024-01-16T23:48:38.800Z,79.61
2024-01-16T23:51:06.118Z,79.70
2024-01-16T23:53:33.512Z,79.81
2024-01-16T23:56:00.970Z,80.08
2024-01-16T23:58:28.414Z,80.03
